sensor_id;sensor_type;location;lat;lon;timestamp;temperature;humidity
74661;SHT31;63191;39.566;2.654;2023-06-19T00:01:47;25.20;52.57
74661;SHT31;63191;39.566;2.654;2023-06-19T00:04:13;25.18;52.63
74661;SHT31;63191;39.566;2.654;2023-06-19T00:06:39;25.17;52.69
74661;SHT31;63191;39.566;2.654;2023-06-19T00:09:06;25.13;52.64
74661;SHT31;63191;39.566;2.654;2023-06-19T00:11:32;25.10;52.56
74661;SHT31;63191;39.566;2.654;2023-06-19T00:13:58;25.09;52.36
74661;SHT31;63191;39.566;2.654;2023-06-19T00:16:24;25.07;52.23
74661;SHT31;63191;39.566;2.654;2023-06-19T00:18:51;25.05;52.22
74661;SHT31;63191;39.566;2.654;2023-06-19T00:21:21;25.03;52.16
74661;SHT31;63191;39.566;2.654;2023-06-19T00:23:51;25.00;51.95
74661;SHT31;63191;39.566;2.654;2023-06-19T00:26:18;25.00;51.67
74661;SHT31;63191;39.566;2.654;2023-06-19T00:28:50;24.97;51.31
74661;SHT31;63191;39.566;2.654;2023-06-19T00:31:17;24.96;50.94
74661;SHT31;63191;39.566;2.654;2023-06-19T00:33:44;24.95;50.67
74661;SHT31;63191;39.566;2.654;2023-06-19T00:36:15;24.94;50.33
74661;SHT31;63191;39.566;2.654;2023-06-19T00:38:45;24.93;49.94
74661;SHT31;63191;39.566;2.654;2023-06-19T00:41:13;24.92;49.74
74661;SHT31;63191;39.566;2.654;2023-06-19T00:43:40;24.92;49.42
74661;SHT31;63191;39.566;2.654;2023-06-19T00:46:06;24.91;49.18
74661;SHT31;63191;39.566;2.654;2023-06-19T00:48:32;24.92;48.87
74661;SHT31;63191;39.566;2.654;2023-06-19T00:50:59;24.92;48.35
74661;SHT31;63191;39.566;2.654;2023-06-19T00:53:25;24.93;48.14
74661;SHT31;63191;39.566;2.654;2023-06-19T00:55:53;24.96;47.97
74661;SHT31;63191;39.566;2.654;2023-06-19T00:58:21;24.95;47.59
74661;SHT31;63191;39.566;2.654;2023-06-19T01:00:47;24.95;47.26
74661;SHT31;63191;39.566;2.654;2023-06-19T01:03:14;24.99;47.06
74661;SHT31;63191;39.566;2.654;2023-06-19T01:05:41;25.03;46.90
74661;SHT31;63191;39.566;2.654;2023-06-19T01:11:00;25.05;46.71
74661;SHT31;63191;39.566;2.654;2023-06-19T01:13:34;25.06;46.49
74661;SHT31;63191;39.566;2.654;2023-06-19T01:16:08;25.04;46.14
74661;SHT31;63191;39.566;2.654;2023-06-19T01:18:36;25.02;45.66
74661;SHT31;63191;39.566;2.654;2023-06-19T01:21:13;25.00;45.48
74661;SHT31;63191;39.566;2.654;2023-06-19T01:23:41;24.98;45.30
74661;SHT31;63191;39.566;2.654;2023-06-19T01:26:08;24.99;45.16
74661;SHT31;63191;39.566;2.654;2023-06-19T01:28:35;24.99;45.28
74661;SHT31;63191;39.566;2.654;2023-06-19T01:31:38;24.97;45.37
74661;SHT31;63191;39.566;2.654;2023-06-19T01:34:01;24.94;45.48
74661;SHT31;63191;39.566;2.654;2023-06-19T01:36:29;24.90;45.60
74661;SHT31;63191;39.566;2.654;2023-06-19T01:38:57;24.86;45.41
74661;SHT31;63191;39.566;2.654;2023-06-19T01:41:23;24.81;45.05
74661;SHT31;63191;39.566;2.654;2023-06-19T01:43:51;24.78;44.85
74661;SHT31;63191;39.566;2.654;2023-06-19T01:46:18;24.74;44.74
74661;SHT31;63191;39.566;2.654;2023-06-19T01:48:45;24.74;44.70
74661;SHT31;63191;39.566;2.654;2023-06-19T01:51:11;24.71;44.54
74661;SHT31;63191;39.566;2.654;2023-06-19T01:53:37;24.69;44.43
74661;SHT31;63191;39.566;2.654;2023-06-19T01:56:03;24.67;44.23
74661;SHT31;63191;39.566;2.654;2023-06-19T01:58:29;24.65;44.09
74661;SHT31;63191;39.566;2.654;2023-06-19T02:00:55;24.64;44.07
74661;SHT31;63191;39.566;2.654;2023-06-19T02:03:21;24.62;44.10
74661;SHT31;63191;39.566;2.654;2023-06-19T02:05:46;24.60;44.22
74661;SHT31;63191;39.566;2.654;2023-06-19T02:08:12;24.58;44.35
74661;SHT31;63191;39.566;2.654;2023-06-19T02:10:38;24.55;44.40
74661;SHT31;63191;39.566;2.654;2023-06-19T02:13:04;24.54;44.66
74661;SHT31;63191;39.566;2.654;2023-06-19T02:15:29;24.50;45.06
74661;SHT31;63191;39.566;2.654;2023-06-19T02:17:55;24.49;45.30
74661;SHT31;63191;39.566;2.654;2023-06-19T02:20:22;24.47;45.76
74661;SHT31;63191;39.566;2.654;2023-06-19T02:22:49;24.45;46.33
74661;SHT31;63191;39.566;2.654;2023-06-19T02:25:16;24.42;46.76
74661;SHT31;63191;39.566;2.654;2023-06-19T02:27:43;24.39;47.85
74661;SHT31;63191;39.566;2.654;2023-06-19T02:30:09;24.36;49.34
74661;SHT31;63191;39.566;2.654;2023-06-19T02:32:35;24.32;50.62
74661;SHT31;63191;39.566;2.654;2023-06-19T02:35:00;24.29;51.33
74661;SHT31;63191;39.566;2.654;2023-06-19T02:37:28;24.25;52.02
74661;SHT31;63191;39.566;2.654;2023-06-19T02:39:54;24.24;52.56
74661;SHT31;63191;39.566;2.654;2023-06-19T02:42:20;24.22;52.98
74661;SHT31;63191;39.566;2.654;2023-06-19T02:44:46;24.19;53.30
74661;SHT31;63191;39.566;2.654;2023-06-19T02:47:11;24.18;53.69
74661;SHT31;63191;39.566;2.654;2023-06-19T02:49:37;24.16;54.16
74661;SHT31;63191;39.566;2.654;2023-06-19T02:52:03;24.15;54.88
74661;SHT31;63191;39.566;2.654;2023-06-19T02:54:30;24.14;55.46
74661;SHT31;63191;39.566;2.654;2023-06-19T02:56:56;24.12;56.26
74661;SHT31;63191;39.566;2.654;2023-06-19T02:59:21;24.12;57.58
74661;SHT31;63191;39.566;2.654;2023-06-19T03:01:47;24.11;58.66
74661;SHT31;63191;39.566;2.654;2023-06-19T03:04:13;24.11;59.82
74661;SHT31;63191;39.566;2.654;2023-06-19T03:06:38;24.11;60.40
74661;SHT31;63191;39.566;2.654;2023-06-19T03:09:05;24.10;60.77
74661;SHT31;63191;39.566;2.654;2023-06-19T03:11:38;24.10;61.29
74661;SHT31;63191;39.566;2.654;2023-06-19T03:14:05;24.10;62.49
74661;SHT31;63191;39.566;2.654;2023-06-19T03:16:32;24.08;62.84
74661;SHT31;63191;39.566;2.654;2023-06-19T03:19:00;24.08;63.69
74661;SHT31;63191;39.566;2.654;2023-06-19T03:21:26;24.08;65.04
74661;SHT31;63191;39.566;2.654;2023-06-19T03:23:52;24.08;66.31
74661;SHT31;63191;39.566;2.654;2023-06-19T03:26:18;24.06;67.13
74661;SHT31;63191;39.566;2.654;2023-06-19T03:28:46;24.03;67.76
74661;SHT31;63191;39.566;2.654;2023-06-19T03:31:12;24.01;68.61
74661;SHT31;63191;39.566;2.654;2023-06-19T03:33:39;23.97;69.45
74661;SHT31;63191;39.566;2.654;2023-06-19T03:36:05;23.96;70.30
74661;SHT31;63191;39.566;2.654;2023-06-19T03:38:31;23.92;70.93
74661;SHT31;63191;39.566;2.654;2023-06-19T03:40:57;23.89;71.33
74661;SHT31;63191;39.566;2.654;2023-06-19T03:43:23;23.86;72.10
74661;SHT31;63191;39.566;2.654;2023-06-19T03:45:48;23.83;72.93
74661;SHT31;63191;39.566;2.654;2023-06-19T03:48:15;23.81;73.31
74661;SHT31;63191;39.566;2.654;2023-06-19T03:50:42;23.79;73.58
74661;SHT31;63191;39.566;2.654;2023-06-19T03:53:07;23.77;73.70
74661;SHT31;63191;39.566;2.654;2023-06-19T03:55:33;23.75;73.85
74661;SHT31;63191;39.566;2.654;2023-06-19T03:57:59;23.75;73.90
74661;SHT31;63191;39.566;2.654;2023-06-19T04:00:25;23.75;74.03
74661;SHT31;63191;39.566;2.654;2023-06-19T04:02:51;23.73;74.19
74661;SHT31;63191;39.566;2.654;2023-06-19T04:05:17;23.72;74.23
74661;SHT31;63191;39.566;2.654;2023-06-19T04:07:43;23.71;74.25
74661;SHT31;63191;39.566;2.654;2023-06-19T04:10:09;23.70;74.27
74661;SHT31;63191;39.566;2.654;2023-06-19T04:12:36;23.70;74.21
74661;SHT31;63191;39.566;2.654;2023-06-19T04:15:03;23.68;74.24
74661;SHT31;63191;39.566;2.654;2023-06-19T04:17:30;23.68;74.21
74661;SHT31;63191;39.566;2.654;2023-06-19T04:19:56;23.67;74.36
74661;SHT31;63191;39.566;2.654;2023-06-19T04:22:23;23.67;74.55
74661;SHT31;63191;39.566;2.654;2023-06-19T04:24:49;23.68;74.59
74661;SHT31;63191;39.566;2.654;2023-06-19T04:27:14;23.68;74.67
74661;SHT31;63191;39.566;2.654;2023-06-19T04:29:40;23.68;74.73
74661;SHT31;63191;39.566;2.654;2023-06-19T04:32:06;23.68;74.67
74661;SHT31;63191;39.566;2.654;2023-06-19T04:34:40;23.70;74.60
74661;SHT31;63191;39.566;2.654;2023-06-19T04:37:11;23.72;74.60
74661;SHT31;63191;39.566;2.654;2023-06-19T04:39:37;23.74;74.46
74661;SHT31;63191;39.566;2.654;2023-06-19T04:42:03;23.75;74.38
74661;SHT31;63191;39.566;2.654;2023-06-19T04:44:29;23.76;74.22
74661;SHT31;63191;39.566;2.654;2023-06-19T04:46:59;23.78;74.05
74661;SHT31;63191;39.566;2.654;2023-06-19T04:49:28;23.82;73.95
74661;SHT31;63191;39.566;2.654;2023-06-19T04:51:57;23.86;73.88
74661;SHT31;63191;39.566;2.654;2023-06-19T04:54:24;23.91;73.86
74661;SHT31;63191;39.566;2.654;2023-06-19T04:56:51;23.95;73.76
74661;SHT31;63191;39.566;2.654;2023-06-19T04:59:17;24.01;73.63
74661;SHT31;63191;39.566;2.654;2023-06-19T05:01:43;24.06;73.47
74661;SHT31;63191;39.566;2.654;2023-06-19T05:04:10;24.11;73.38
74661;SHT31;63191;39.566;2.654;2023-06-19T05:06:38;24.18;73.34
74661;SHT31;63191;39.566;2.654;2023-06-19T05:09:05;24.24;73.36
74661;SHT31;63191;39.566;2.654;2023-06-19T05:11:31;24.30;73.33
74661;SHT31;63191;39.566;2.654;2023-06-19T05:13:57;24.35;73.22
74661;SHT31;63191;39.566;2.654;2023-06-19T05:16:23;24.43;73.07
74661;SHT31;63191;39.566;2.654;2023-06-19T05:18:49;24.50;72.91
74661;SHT31;63191;39.566;2.654;2023-06-19T05:21:16;24.57;72.71
74661;SHT31;63191;39.566;2.654;2023-06-19T05:23:42;24.63;72.47
74661;SHT31;63191;39.566;2.654;2023-06-19T05:26:08;24.72;72.27
74661;SHT31;63191;39.566;2.654;2023-06-19T05:28:34;24.78;72.09
74661;SHT31;63191;39.566;2.654;2023-06-19T05:31:00;24.85;71.98
74661;SHT31;63191;39.566;2.654;2023-06-19T05:33:25;24.93;71.89
74661;SHT31;63191;39.566;2.654;2023-06-19T05:35:52;25.01;71.76
74661;SHT31;63191;39.566;2.654;2023-06-19T05:38:19;25.08;71.68
74661;SHT31;63191;39.566;2.654;2023-06-19T05:40:46;25.18;71.54
74661;SHT31;63191;39.566;2.654;2023-06-19T05:43:12;25.28;71.38
74661;SHT31;63191;39.566;2.654;2023-06-19T05:45:38;25.40;71.13
74661;SHT31;63191;39.566;2.654;2023-06-19T05:48:04;25.53;70.84
74661;SHT31;63191;39.566;2.654;2023-06-19T05:50:30;25.69;70.47
74661;SHT31;63191;39.566;2.654;2023-06-19T05:52:56;25.86;70.02
74661;SHT31;63191;39.566;2.654;2023-06-19T05:55:21;26.02;69.51
74661;SHT31;63191;39.566;2.654;2023-06-19T05:57:50;26.20;68.88
74661;SHT31;63191;39.566;2.654;2023-06-19T06:00:16;26.41;68.33
74661;SHT31;63191;39.566;2.654;2023-06-19T06:02:42;26.65;67.67
74661;SHT31;63191;39.566;2.654;2023-06-19T06:05:08;26.89;66.96
74661;SHT31;63191;39.566;2.654;2023-06-19T06:07:35;27.13;66.28
74661;SHT31;63191;39.566;2.654;2023-06-19T06:10:01;27.36;65.54
74661;SHT31;63191;39.566;2.654;2023-06-19T06:12:27;27.59;65.07
74661;SHT31;63191;39.566;2.654;2023-06-19T06:14:53;27.81;64.57
74661;SHT31;63191;39.566;2.654;2023-06-19T06:17:19;28.06;64.09
74661;SHT31;63191;39.566;2.654;2023-06-19T06:19:44;28.20;63.45
74661;SHT31;63191;39.566;2.654;2023-06-19T06:22:10;28.25;62.78
74661;SHT31;63191;39.566;2.654;2023-06-19T06:24:36;28.25;62.63
74661;SHT31;63191;39.566;2.654;2023-06-19T10:11:00;37.57;37.86
74661;SHT31;63191;39.566;2.654;2023-06-19T10:13:33;37.69;37.77
74661;SHT31;63191;39.566;2.654;2023-06-19T10:16:04;37.74;37.74
74661;SHT31;63191;39.566;2.654;2023-06-19T10:18:31;37.90;37.70
74661;SHT31;63191;39.566;2.654;2023-06-19T10:20:58;38.14;37.51
74661;SHT31;63191;39.566;2.654;2023-06-19T10:23:24;38.44;37.43
74661;SHT31;63191;39.566;2.654;2023-06-19T10:28:20;39.19;36.77
74661;SHT31;63191;39.566;2.654;2023-06-19T10:30:58;39.63;36.17
74661;SHT31;63191;39.566;2.654;2023-06-19T10:33:29;40.08;35.51
74661;SHT31;63191;39.566;2.654;2023-06-19T10:35:58;40.33;34.65
74661;SHT31;63191;39.566;2.654;2023-06-19T10:38:25;40.42;34.72
74661;SHT31;63191;39.566;2.654;2023-06-19T10:40:52;40.58;34.79
74661;SHT31;63191;39.566;2.654;2023-06-19T10:43:24;40.76;34.14
74661;SHT31;63191;39.566;2.654;2023-06-19T10:45:55;40.75;33.69
74661;SHT31;63191;39.566;2.654;2023-06-19T10:48:24;40.76;33.79
74661;SHT31;63191;39.566;2.654;2023-06-19T10:50:50;40.71;33.55
74661;SHT31;63191;39.566;2.654;2023-06-19T10:53:23;40.64;33.74
74661;SHT31;63191;39.566;2.654;2023-06-19T10:55:54;40.60;33.66
74661;SHT31;63191;39.566;2.654;2023-06-19T10:58:24;40.47;33.51
74661;SHT31;63191;39.566;2.654;2023-06-19T11:00:51;40.42;33.76
74661;SHT31;63191;39.566;2.654;2023-06-19T11:03:18;40.43;33.69
74661;SHT31;63191;39.566;2.654;2023-06-19T11:05:45;40.23;33.90
74661;SHT31;63191;39.566;2.654;2023-06-19T11:08:16;39.76;34.11
74661;SHT31;63191;39.566;2.654;2023-06-19T11:10:47;39.34;33.69
74661;SHT31;63191;39.566;2.654;2023-06-19T11:13:17;39.20;34.84
74661;SHT31;63191;39.566;2.654;2023-06-19T11:15:45;39.22;34.69
74661;SHT31;63191;39.566;2.654;2023-06-19T11:18:17;38.97;34.23
74661;SHT31;63191;39.566;2.654;2023-06-19T11:20:48;38.58;35.51
74661;SHT31;63191;39.566;2.654;2023-06-19T11:23:16;37.87;37.57
74661;SHT31;63191;39.566;2.654;2023-06-19T11:25:50;37.06;38.86
74661;SHT31;63191;39.566;2.654;2023-06-19T11:28:16;36.50;39.77
74661;SHT31;63191;39.566;2.654;2023-06-19T11:30:47;36.09;39.41
74661;SHT31;63191;39.566;2.654;2023-06-19T11:33:29;35.83;39.55
74661;SHT31;63191;39.566;2.654;2023-06-19T11:35:58;35.64;39.10
74661;SHT31;63191;39.566;2.654;2023-06-19T11:38:25;35.40;39.45
74661;SHT31;63191;39.566;2.654;2023-06-19T11:40:53;35.10;40.51
74661;SHT31;63191;39.566;2.654;2023-06-19T11:43:24;34.77;41.58
74661;SHT31;63191;39.566;2.654;2023-06-19T11:46:03;34.56;41.79
74661;SHT31;63191;39.566;2.654;2023-06-19T11:48:31;34.42;43.20
74661;SHT31;63191;39.566;2.654;2023-06-19T11:50:57;34.22;43.32
74661;SHT31;63191;39.566;2.654;2023-06-19T11:53:24;34.07;43.63
74661;SHT31;63191;39.566;2.654;2023-06-19T11:55:51;33.98;43.92
74661;SHT31;63191;39.566;2.654;2023-06-19T11:58:17;33.89;44.36
74661;SHT31;63191;39.566;2.654;2023-06-19T12:00:44;33.85;44.42
74661;SHT31;63191;39.566;2.654;2023-06-19T12:03:10;33.85;44.51
74661;SHT31;63191;39.566;2.654;2023-06-19T12:05:36;33.86;44.61
74661;SHT31;63191;39.566;2.654;2023-06-19T12:08:04;33.86;44.68
74661;SHT31;63191;39.566;2.654;2023-06-19T12:10:32;33.91;44.90
74661;SHT31;63191;39.566;2.654;2023-06-19T12:12:59;34.00;44.95
74661;SHT31;63191;39.566;2.654;2023-06-19T12:15:25;34.14;44.95
74661;SHT31;63191;39.566;2.654;2023-06-19T12:17:52;34.37;44.80
74661;SHT31;63191;39.566;2.654;2023-06-19T12:20:18;34.60;44.32
74661;SHT31;63191;39.566;2.654;2023-06-19T12:22:46;34.68;43.73
74661;SHT31;63191;39.566;2.654;2023-06-19T12:25:12;34.69;43.90
74661;SHT31;63191;39.566;2.654;2023-06-19T12:27:37;34.76;43.82
74661;SHT31;63191;39.566;2.654;2023-06-19T12:30:04;34.83;43.51
74661;SHT31;63191;39.566;2.654;2023-06-19T12:32:33;34.77;43.47
74661;SHT31;63191;39.566;2.654;2023-06-19T12:34:59;34.76;43.89
74661;SHT31;63191;39.566;2.654;2023-06-19T12:37:25;34.87;43.80
74661;SHT31;63191;39.566;2.654;2023-06-19T12:39:51;34.89;43.67
74661;SHT31;63191;39.566;2.654;2023-06-19T12:42:17;34.83;43.83
74661;SHT31;63191;39.566;2.654;2023-06-19T12:44:43;34.90;43.51
74661;SHT31;63191;39.566;2.654;2023-06-19T12:47:12;34.83;43.82
74661;SHT31;63191;39.566;2.654;2023-06-19T12:49:38;34.71;44.14
74661;SHT31;63191;39.566;2.654;2023-06-19T12:52:04;34.70;44.44
74661;SHT31;63191;39.566;2.654;2023-06-19T12:54:31;34.61;44.30
74661;SHT31;63191;39.566;2.654;2023-06-19T12:56:57;34.49;44.24
74661;SHT31;63191;39.566;2.654;2023-06-19T12:59:23;34.53;44.57
74661;SHT31;63191;39.566;2.654;2023-06-19T13:01:49;34.70;44.69
74661;SHT31;63191;39.566;2.654;2023-06-19T13:04:15;35.03;44.54
74661;SHT31;63191;39.566;2.654;2023-06-19T13:06:41;35.27;44.13
74661;SHT31;63191;39.566;2.654;2023-06-19T13:09:07;35.52;44.00
74661;SHT31;63191;39.566;2.654;2023-06-19T13:11:33;35.76;42.72
74661;SHT31;63191;39.566;2.654;2023-06-19T13:14:00;35.88;42.23
74661;SHT31;63191;39.566;2.654;2023-06-19T13:16:26;35.84;41.68
74661;SHT31;63191;39.566;2.654;2023-06-19T13:18:52;35.86;42.02
74661;SHT31;63191;39.566;2.654;2023-06-19T13:21:18;36.19;42.06
74661;SHT31;63191;39.566;2.654;2023-06-19T13:23:44;36.34;41.57
74661;SHT31;63191;39.566;2.654;2023-06-19T13:26:09;36.34;41.46
74661;SHT31;63191;39.566;2.654;2023-06-19T13:28:36;36.30;41.54
74661;SHT31;63191;39.566;2.654;2023-06-19T13:31:02;36.14;41.89
74661;SHT31;63191;39.566;2.654;2023-06-19T13:33:28;35.94;42.73
74661;SHT31;63191;39.566;2.654;2023-06-19T13:35:54;36.00;42.83
74661;SHT31;63191;39.566;2.654;2023-06-19T13:38:20;35.99;42.61
74661;SHT31;63191;39.566;2.654;2023-06-19T13:40:46;35.89;42.84
74661;SHT31;63191;39.566;2.654;2023-06-19T13:43:13;35.85;43.08
74661;SHT31;63191;39.566;2.654;2023-06-19T13:45:39;35.62;43.17
74661;SHT31;63191;39.566;2.654;2023-06-19T13:48:05;35.55;43.76
74661;SHT31;63191;39.566;2.654;2023-06-19T13:50:31;35.64;43.96
74661;SHT31;63191;39.566;2.654;2023-06-19T13:52:58;35.88;44.05
74661;SHT31;63191;39.566;2.654;2023-06-19T13:55:25;36.18;43.72
74661;SHT31;63191;39.566;2.654;2023-06-19T13:57:51;36.28;42.58
74661;SHT31;63191;39.566;2.654;2023-06-19T14:00:17;36.19;42.63
74661;SHT31;63191;39.566;2.654;2023-06-19T14:02:45;36.16;42.27
74661;SHT31;63191;39.566;2.654;2023-06-19T14:05:11;35.94;42.42
74661;SHT31;63191;39.566;2.654;2023-06-19T14:07:40;35.69;42.97
74661;SHT31;63191;39.566;2.654;2023-06-19T14:10:10;35.39;43.52
74661;SHT31;63191;39.566;2.654;2023-06-19T14:12:36;35.36;44.09
74661;SHT31;63191;39.566;2.654;2023-06-19T14:15:01;35.52;44.10
74661;SHT31;63191;39.566;2.654;2023-06-19T14:17:27;35.75;43.88
74661;SHT31;63191;39.566;2.654;2023-06-19T14:19:53;35.90;43.16
74661;SHT31;63191;39.566;2.654;2023-06-19T14:22:22;35.95;42.71
74661;SHT31;63191;39.566;2.654;2023-06-19T14:24:47;35.80;42.23
74661;SHT31;63191;39.566;2.654;2023-06-19T14:27:14;35.60;42.74
74661;SHT31;63191;39.566;2.654;2023-06-19T14:29:40;35.52;42.93
74661;SHT31;63191;39.566;2.654;2023-06-19T14:32:05;35.63;42.94
74661;SHT31;63191;39.566;2.654;2023-06-19T14:34:31;35.89;42.99
74661;SHT31;63191;39.566;2.654;2023-06-19T14:36:57;36.10;42.89
74661;SHT31;63191;39.566;2.654;2023-06-19T14:39:23;36.33;42.46
74661;SHT31;63191;39.566;2.654;2023-06-19T14:41:48;36.30;41.94
74661;SHT31;63191;39.566;2.654;2023-06-19T14:44:14;36.31;42.01
74661;SHT31;63191;39.566;2.654;2023-06-19T14:46:40;36.38;41.40
74661;SHT31;63191;39.566;2.654;2023-06-19T14:49:06;36.32;41.03
74661;SHT31;63191;39.566;2.654;2023-06-19T14:51:35;36.28;41.41
74661;SHT31;63191;39.566;2.654;2023-06-19T14:54:01;36.40;41.45
74661;SHT31;63191;39.566;2.654;2023-06-19T14:56:27;36.46;41.13
74661;SHT31;63191;39.566;2.654;2023-06-19T14:58:53;36.34;40.87
74661;SHT31;63191;39.566;2.654;2023-06-19T15:01:19;36.12;40.85
74661;SHT31;63191;39.566;2.654;2023-06-19T15:03:45;35.76;41.41
74661;SHT31;63191;39.566;2.654;2023-06-19T15:06:10;35.71;42.05
74661;SHT31;63191;39.566;2.654;2023-06-19T15:08:36;35.83;41.86
74661;SHT31;63191;39.566;2.654;2023-06-19T15:11:04;36.01;41.26
74661;SHT31;63191;39.566;2.654;2023-06-19T15:13:31;36.03;40.71
74661;SHT31;63191;39.566;2.654;2023-06-19T15:15:57;36.07;40.80
74661;SHT31;63191;39.566;2.654;2023-06-19T15:18:23;36.14;40.58
74661;SHT31;63191;39.566;2.654;2023-06-19T15:20:52;36.17;40.45
74661;SHT31;63191;39.566;2.654;2023-06-19T15:23:18;36.25;40.43
74661;SHT31;63191;39.566;2.654;2023-06-19T15:25:44;36.20;40.53
74661;SHT31;63191;39.566;2.654;2023-06-19T15:28:10;35.98;40.39
74661;SHT31;63191;39.566;2.654;2023-06-19T15:30:36;35.82;40.72
74661;SHT31;63191;39.566;2.654;2023-06-19T15:33:02;35.81;40.77
74661;SHT31;63191;39.566;2.654;2023-06-19T15:35:28;35.71;40.36
74661;SHT31;63191;39.566;2.654;2023-06-19T15:37:54;35.48;40.72
74661;SHT31;63191;39.566;2.654;2023-06-19T15:40:26;35.34;40.92
74661;SHT31;63191;39.566;2.654;2023-06-19T15:42:52;35.13;41.14
74661;SHT31;63191;39.566;2.654;2023-06-19T15:45:19;34.87;41.60
74661;SHT31;63191;39.566;2.654;2023-06-19T15:47:45;34.74;42.02
74661;SHT31;63191;39.566;2.654;2023-06-19T15:50:11;34.72;42.10
74661;SHT31;63191;39.566;2.654;2023-06-19T15:52:37;34.69;42.19
74661;SHT31;63191;39.566;2.654;2023-06-19T15:55:02;34.68;42.09
74661;SHT31;63191;39.566;2.654;2023-06-19T15:57:30;34.60;42.19
74661;SHT31;63191;39.566;2.654;2023-06-19T15:59:56;34.56;42.36
74661;SHT31;63191;39.566;2.654;2023-06-19T16:02:22;34.59;42.16
74661;SHT31;63191;39.566;2.654;2023-06-19T16:04:48;34.58;42.28
74661;SHT31;63191;39.566;2.654;2023-06-19T16:07:14;34.65;42.15
74661;SHT31;63191;39.566;2.654;2023-06-19T16:09:41;34.55;41.88
74661;SHT31;63191;39.566;2.654;2023-06-19T16:12:08;34.21;42.36
74661;SHT31;63191;39.566;2.654;2023-06-19T16:14:34;33.93;42.72
74661;SHT31;63191;39.566;2.654;2023-06-19T16:17:01;33.82;43.21
74661;SHT31;63191;39.566;2.654;2023-06-19T16:19:27;33.84;43.17
74661;SHT31;63191;39.566;2.654;2023-06-19T16:21:52;33.90;43.05
74661;SHT31;63191;39.566;2.654;2023-06-19T16:24:18;33.95;43.11
74661;SHT31;63191;39.566;2.654;2023-06-19T16:26:44;34.01;42.99
74661;SHT31;63191;39.566;2.654;2023-06-19T16:29:09;34.06;42.87
74661;SHT31;63191;39.566;2.654;2023-06-19T16:31:37;34.13;42.31
74661;SHT31;63191;39.566;2.654;2023-06-19T16:34:03;34.07;42.23
74661;SHT31;63191;39.566;2.654;2023-06-19T16:36:31;33.99;42.14
74661;SHT31;63191;39.566;2.654;2023-06-19T16:38:58;33.93;42.11
74661;SHT31;63191;39.566;2.654;2023-06-19T16:41:24;33.87;42.35
74661;SHT31;63191;39.566;2.654;2023-06-19T16:43:50;33.85;42.12
74661;SHT31;63191;39.566;2.654;2023-06-19T16:46:16;33.79;42.10
74661;SHT31;63191;39.566;2.654;2023-06-19T16:48:42;33.66;42.26
74661;SHT31;63191;39.566;2.654;2023-06-19T16:51:08;33.60;42.17
74661;SHT31;63191;39.566;2.654;2023-06-19T16:53:33;33.48;42.07
74661;SHT31;63191;39.566;2.654;2023-06-19T16:55:59;33.47;42.29
74661;SHT31;63191;39.566;2.654;2023-06-19T16:58:25;33.47;42.33
74661;SHT31;63191;39.566;2.654;2023-06-19T17:00:51;33.46;42.58
74661;SHT31;63191;39.566;2.654;2023-06-19T17:03:18;33.50;42.60
74661;SHT31;63191;39.566;2.654;2023-06-19T17:05:44;33.46;42.37
74661;SHT31;63191;39.566;2.654;2023-06-19T17:08:11;33.32;42.75
74661;SHT31;63191;39.566;2.654;2023-06-19T17:10:37;33.19;43.49
74661;SHT31;63191;39.566;2.654;2023-06-19T17:13:03;33.04;44.30
74661;SHT31;63191;39.566;2.654;2023-06-19T17:15:29;32.98;44.81
74661;SHT31;63191;39.566;2.654;2023-06-19T17:17:58;32.90;45.00
74661;SHT31;63191;39.566;2.654;2023-06-19T17:20:25;32.81;44.91
74661;SHT31;63191;39.566;2.654;2023-06-19T17:22:51;32.71;44.46
74661;SHT31;63191;39.566;2.654;2023-06-19T17:25:17;32.65;44.31
74661;SHT31;63191;39.566;2.654;2023-06-19T17:27:43;32.60;44.41
74661;SHT31;63191;39.566;2.654;2023-06-19T17:30:09;32.53;43.90
74661;SHT31;63191;39.566;2.654;2023-06-19T17:32:37;32.40;43.97
74661;SHT31;63191;39.566;2.654;2023-06-19T17:35:05;32.26;44.08
74661;SHT31;63191;39.566;2.654;2023-06-19T17:37:34;32.13;44.67
74661;SHT31;63191;39.566;2.654;2023-06-19T17:40:05;31.99;44.23
74661;SHT31;63191;39.566;2.654;2023-06-19T17:42:36;31.87;44.43
74661;SHT31;63191;39.566;2.654;2023-06-19T17:45:02;31.75;44.71
74661;SHT31;63191;39.566;2.654;2023-06-19T17:47:28;31.64;45.22
74661;SHT31;63191;39.566;2.654;2023-06-19T17:49:54;31.56;45.07
74661;SHT31;63191;39.566;2.654;2023-06-19T17:52:20;31.46;44.90
74661;SHT31;63191;39.566;2.654;2023-06-19T17:54:45;31.41;44.86
74661;SHT31;63191;39.566;2.654;2023-06-19T17:57:15;31.39;44.79
74661;SHT31;63191;39.566;2.654;2023-06-19T17:59:42;31.40;45.07
74661;SHT31;63191;39.566;2.654;2023-06-19T18:02:07;31.41;45.00
74661;SHT31;63191;39.566;2.654;2023-06-19T18:04:33;31.41;45.05
74661;SHT31;63191;39.566;2.654;2023-06-19T18:06:59;31.39;45.45
74661;SHT31;63191;39.566;2.654;2023-06-19T18:09:25;31.33;46.02
74661;SHT31;63191;39.566;2.654;2023-06-19T18:11:51;31.18;47.29
74661;SHT31;63191;39.566;2.654;2023-06-19T18:14:17;31.00;47.09
74661;SHT31;63191;39.566;2.654;2023-06-19T18:16:45;30.89;47.11
74661;SHT31;63191;39.566;2.654;2023-06-19T18:19:11;30.81;48.50
74661;SHT31;63191;39.566;2.654;2023-06-19T18:21:37;30.72;49.06
74661;SHT31;63191;39.566;2.654;2023-06-19T18:24:03;30.61;49.21
74661;SHT31;63191;39.566;2.654;2023-06-19T18:26:29;30.51;49.22
74661;SHT31;63191;39.566;2.654;2023-06-19T18:28:54;30.45;49.20
74661;SHT31;63191;39.566;2.654;2023-06-19T18:31:20;30.36;49.33
74661;SHT31;63191;39.566;2.654;2023-06-19T18:33:46;30.27;49.73
74661;SHT31;63191;39.566;2.654;2023-06-19T18:36:12;30.17;49.95
74661;SHT31;63191;39.566;2.654;2023-06-19T18:38:37;30.12;50.48
74661;SHT31;63191;39.566;2.654;2023-06-19T18:41:03;30.07;50.95
74661;SHT31;63191;39.566;2.654;2023-06-19T18:43:29;30.01;51.15
74661;SHT31;63191;39.566;2.654;2023-06-19T18:45:54;29.99;51.11
74661;SHT31;63191;39.566;2.654;2023-06-19T18:48:20;29.97;51.53
74661;SHT31;63191;39.566;2.654;2023-06-19T18:50:46;29.91;51.67
74661;SHT31;63191;39.566;2.654;2023-06-19T18:53:13;29.85;52.35
74661;SHT31;63191;39.566;2.654;2023-06-19T18:55:39;29.79;52.90
74661;SHT31;63191;39.566;2.654;2023-06-19T18:58:04;29.74;53.26
74661;SHT31;63191;39.566;2.654;2023-06-19T19:00:31;29.68;53.26
74661;SHT31;63191;39.566;2.654;2023-06-19T19:02:57;29.65;53.71
74661;SHT31;63191;39.566;2.654;2023-06-19T19:05:23;29.62;53.43
74661;SHT31;63191;39.566;2.654;2023-06-19T19:07:49;29.57;53.12
74661;SHT31;63191;39.566;2.654;2023-06-19T19:10:15;29.53;53.42
74661;SHT31;63191;39.566;2.654;2023-06-19T19:12:41;29.48;53.34
74661;SHT31;63191;39.566;2.654;2023-06-19T19:15:06;29.44;53.64
74661;SHT31;63191;39.566;2.654;2023-06-19T19:17:33;29.42;54.25